createdAt,value
2018-03-28T00:01:02.761Z,65.46
2018-03-28T00:02:08.565Z,65.63
2018-03-28T00:03:15.092Z,65.87
2018-03-28T00:04:20.964Z,66.03
2018-03-28T00:05:26.885Z,66.05
2018-03-28T00:06:32.638Z,66.06
2018-03-28T00:07:39.909Z,66.15
2018-03-28T00:08:45.660Z,66.41
2018-03-28T00:09:51.416Z,66.26
2018-03-28T00:10:57.168Z,66.21
2018-03-28T00:12:03.680Z,66.00
2018-03-28T00:13:09.448Z,65.98
2018-03-28T00:14:15.206Z,66.10
2018-03-28T00:15:21.717Z,66.45
2018-03-28T00:16:27.236Z,66.50
2018-03-28T00:17:33.011Z,66.41
2018-03-28T00:18:38.782Z,66.24
2018-03-28T00:19:45.364Z,66.53
2018-03-28T00:20:51.121Z,66.79
2018-03-28T00:21:56.885Z,67.24
2018-03-28T00:23:02.633Z,67.31
2018-03-28T00:24:08.424Z,67.30
2018-03-28T00:25:14.928Z,67.36
2018-03-28T00:26:20.830Z,67.09
2018-03-28T00:27:26.606Z,67.05
2018-03-28T00:28:32.353Z,66.87
2018-03-28T00:29:38.124Z,67.31
2018-03-28T00:30:43.884Z,67.42
2018-03-28T00:31:50.424Z,67.47
2018-03-28T00:32:56.174Z,67.43
2018-03-28T00:34:01.932Z,67.83
2018-03-28T00:35:08.481Z,67.95
2018-03-28T00:36:15.266Z,67.69
2018-03-28T00:37:21.030Z,67.58
2018-03-28T00:38:26.785Z,67.68
2018-03-28T00:39:32.633Z,68.00
2018-03-28T00:40:38.410Z,68.19
2018-03-28T00:41:44.937Z,68.60
2018-03-28T00:42:50.685Z,68.61
2018-03-28T00:43:57.903Z,68.46
2018-03-28T00:45:04.412Z,68.63
2018-03-28T00:46:10.199Z,68.73
2018-03-28T00:47:16.727Z,68.76
2018-03-28T00:48:22.497Z,68.76
2018-03-28T00:49:29.096Z,68.83
2018-03-28T00:50:34.844Z,68.82
2018-03-28T00:51:40.620Z,68.82
2018-03-28T00:52:47.145Z,69.10
2018-03-28T00:53:52.930Z,69.12
2018-03-28T00:54:58.712Z,69.08
2018-03-28T00:56:04.460Z,68.97
2018-03-28T00:57:10.256Z,68.94
2018-03-28T00:58:16.787Z,68.84
2018-03-28T00:59:22.553Z,69.00
2018-03-28T01:00:28.333Z,68.93
2018-03-28T01:01:34.088Z,69.15
2018-03-28T01:02:39.865Z,69.10
2018-03-28T01:03:44.993Z,69.05
2018-03-28T01:04:50.749Z,69.04
2018-03-28T01:05:57.277Z,69.13
2018-03-28T01:07:03.093Z,69.23
2018-03-28T01:08:08.899Z,69.05
2018-03-28T01:09:15.421Z,69.16
2018-03-28T01:10:21.176Z,69.15
2018-03-28T01:11:26.956Z,69.25
2018-03-28T01:12:33.469Z,69.35
2018-03-28T01:13:39.251Z,69.10
2018-03-28T01:14:45.804Z,69.29
2018-03-28T01:15:52.325Z,69.24
2018-03-28T01:16:58.079Z,69.23
2018-03-28T01:18:03.875Z,69.19
2018-03-28T01:19:09.661Z,68.97
2018-03-28T01:20:15.531Z,68.91
2018-03-28T01:21:22.068Z,68.87
2018-03-28T01:22:27.178Z,68.93
2018-03-28T01:23:32.945Z,69.12
2018-03-28T01:24:38.908Z,69.26
2018-03-28T01:25:45.429Z,69.44
2018-03-28T01:26:51.190Z,69.28
2018-03-28T01:27:56.956Z,69.49
2018-03-28T01:29:02.900Z,69.46
2018-03-28T01:30:09.445Z,69.56
2018-03-28T01:31:15.199Z,69.71
2018-03-28T01:32:21.725Z,69.44
2018-03-28T01:33:27.484Z,69.36
2018-03-28T01:34:33.248Z,69.32
2018-03-28T01:35:39.784Z,69.60
2018-03-28T01:36:45.764Z,69.65
2018-03-28T01:37:52.295Z,69.85
2018-03-28T01:38:58.065Z,69.98
2018-03-28T01:40:03.584Z,70.02
2018-03-28T01:41:10.160Z,70.19
2018-03-28T01:42:16.736Z,70.42
2018-03-28T01:43:22.491Z,70.54
2018-03-28T01:44:28.251Z,70.64
2018-03-28T01:45:34.015Z,70.74
2018-03-28T01:46:39.792Z,71.10
2018-03-28T01:47:45.777Z,71.11
2018-03-28T01:48:51.526Z,71.20
2018-03-28T01:49:57.272Z,71.21
2018-03-28T01:51:02.800Z,71.24
2018-03-28T01:52:08.345Z,71.12
2018-03-28T01:53:14.155Z,71.13
2018-03-28T01:54:19.679Z,70.98
2018-03-28T01:55:25.433Z,71.09
2018-03-28T01:56:31.196Z,71.14
2018-03-28T01:57:36.971Z,70.92
2018-03-28T01:58:42.741Z,70.94
2018-03-28T01:59:48.500Z,71.07
2018-03-28T02:00:54.263Z,71.23
2018-03-28T02:02:00.013Z,71.15
2018-03-28T02:03:05.800Z,71.10
2018-03-28T02:04:12.313Z,71.26
2018-03-28T02:05:18.076Z,71.36
2018-03-28T02:06:23.824Z,71.59
2018-03-28T02:07:30.354Z,71.69
2018-03-28T02:08:36.129Z,71.93
2018-03-28T02:09:42.657Z,72.05
2018-03-28T02:10:48.461Z,72.33
2018-03-28T02:11:54.235Z,72.40
2018-03-28T02:12:59.994Z,72.41
2018-03-28T02:14:05.773Z,72.87
2018-03-28T02:15:12.288Z,72.74
2018-03-28T02:16:18.053Z,72.77
2018-03-28T02:17:24.582Z,72.79
2018-03-28T02:18:30.388Z,72.74
2018-03-28T02:19:36.169Z,72.91
2018-03-28T02:20:41.716Z,73.05
2018-03-28T02:21:47.483Z,73.00
2018-03-28T02:22:54.014Z,73.09
2018-03-28T02:23:59.789Z,73.17
2018-03-28T02:25:06.330Z,73.17
2018-03-28T02:26:12.094Z,73.15
2018-03-28T02:27:18.619Z,73.12
2018-03-28T02:28:24.371Z,73.15
2018-03-28T02:29:30.117Z,73.22
2018-03-28T02:30:35.898Z,73.24
2018-03-28T02:31:41.656Z,73.31
2018-03-28T02:32:47.418Z,73.31
2018-03-28T02:33:53.171Z,73.41
2018-03-28T02:34:58.939Z,73.35
2018-03-28T02:36:04.477Z,73.40
2018-03-28T02:37:10.998Z,73.34
2018-03-28T02:38:16.769Z,73.15
2018-03-28T02:39:22.529Z,73.24
2018-03-28T02:40:29.247Z,73.18
2018-03-28T02:41:35.024Z,73.10
2018-03-28T02:42:41.312Z,72.82
2018-03-28T02:43:47.079Z,72.84
2018-03-28T02:44:52.824Z,72.69
2018-03-28T02:45:58.567Z,72.68
2018-03-28T02:47:04.118Z,72.63
2018-03-28T02:48:09.872Z,72.57
2018-03-28T02:49:15.630Z,72.65
2018-03-28T02:50:22.142Z,72.53
2018-03-28T02:51:27.887Z,72.34
2018-03-28T02:52:33.656Z,72.38
2018-03-28T02:53:40.195Z,72.13
2018-03-28T02:54:45.722Z,72.31
2018-03-28T02:55:51.544Z,72.14
2018-03-28T02:56:57.343Z,72.17
2018-03-28T02:58:03.131Z,72.31
2018-03-28T02:59:08.885Z,72.13
2018-03-28T03:00:14.638Z,72.06
2018-03-28T03:01:20.410Z,72.07
2018-03-28T03:02:26.946Z,72.02
2018-03-28T03:03:32.714Z,72.19
2018-03-28T03:04:39.239Z,72.40
2018-03-28T03:05:44.993Z,72.61
2018-03-28T03:06:50.740Z,72.44
2018-03-28T03:07:57.341Z,72.12
2018-03-28T03:09:03.166Z,72.07
2018-03-28T03:10:09.676Z,72.21
2018-03-28T03:11:15.429Z,72.42
2018-03-28T03:12:21.173Z,72.46
2018-03-28T03:13:26.916Z,72.47
2018-03-28T03:14:32.694Z,72.53
2018-03-28T03:15:39.205Z,72.59
2018-03-28T03:16:44.972Z,72.68
2018-03-28T03:17:50.729Z,72.42
2018-03-28T03:18:57.242Z,72.20
2018-03-28T03:20:03.032Z,72.32
2018-03-28T03:21:09.539Z,72.44
2018-03-28T03:22:15.282Z,72.41
2018-03-28T03:23:21.028Z,72.58
2018-03-28T03:24:26.786Z,72.56
2018-03-28T03:25:32.595Z,72.75
2018-03-28T03:26:38.368Z,72.72
2018-03-28T03:27:44.118Z,72.76
2018-03-28T03:28:49.865Z,72.82
2018-03-28T03:29:55.618Z,72.72
2018-03-28T03:31:02.172Z,72.60
2018-03-28T03:32:07.913Z,72.71
2018-03-28T03:33:13.687Z,72.74
2018-03-28T03:34:20.201Z,72.75
2018-03-28T03:35:26.001Z,72.70
2018-03-28T03:36:31.572Z,72.64
2018-03-28T03:37:37.509Z,72.70
2018-03-28T03:38:43.261Z,72.60
2018-03-28T03:39:49.011Z,72.66
2018-03-28T03:40:54.766Z,72.51
2018-03-28T03:42:01.324Z,72.43
2018-03-28T03:43:07.083Z,72.53
2018-03-28T03:44:13.614Z,72.49
2018-03-28T03:45:20.129Z,72.35
2018-03-28T03:46:25.883Z,72.54
2018-03-28T03:47:31.650Z,72.42
2018-03-28T03:48:37.406Z,72.36
2018-03-28T03:49:43.951Z,72.44
2018-03-28T03:50:49.712Z,72.30
2018-03-28T03:51:55.476Z,72.32
2018-03-28T03:53:02.014Z,72.32
2018-03-28T03:54:07.790Z,72.25
2018-03-28T03:55:13.533Z,72.22
2018-03-28T03:56:19.424Z,72.14
2018-03-28T03:57:25.176Z,72.05
2018-03-28T03:58:32.466Z,71.98
2018-03-28T03:59:38.990Z,71.95
2018-03-28T04:00:44.791Z,71.93
2018-03-28T04:01:50.830Z,71.90
2018-03-28T04:02:57.342Z,71.85
2018-03-28T04:04:03.143Z,71.74
2018-03-28T04:05:08.953Z,71.66
2018-03-28T04:06:14.712Z,71.58
2018-03-28T04:07:21.229Z,71.59
2018-03-28T04:08:26.988Z,71.60
2018-03-28T04:09:32.746Z,71.54
2018-03-28T04:10:39.265Z,71.53
2018-03-28T04:11:45.018Z,71.58
2018-03-28T04:12:50.770Z,71.43
2018-03-28T04:13:57.298Z,71.48
2018-03-28T04:15:03.073Z,71.40
2018-03-28T04:16:08.511Z,71.43
2018-03-28T04:17:14.258Z,71.52
2018-03-28T04:18:20.847Z,71.59
2018-03-28T04:19:26.581Z,71.48
2018-03-28T04:20:33.665Z,71.53
2018-03-28T04:21:39.659Z,71.40
2018-03-28T04:22:47.193Z,71.42
2018-03-28T04:23:53.073Z,71.42
2018-03-28T04:24:59.398Z,71.41
2018-03-28T04:26:05.559Z,71.28
2018-03-28T04:27:11.709Z,71.18
2018-03-28T04:28:17.828Z,71.20
2018-03-28T04:29:23.901Z,71.14
2018-03-28T04:30:29.873Z,71.04
2018-03-28T04:31:35.736Z,71.28
2018-03-28T04:32:41.557Z,71.11
2018-03-28T04:33:47.388Z,71.22
2018-03-28T04:34:53.138Z,71.06
2018-03-28T04:35:58.892Z,70.91
2018-03-28T04:37:04.667Z,70.78
2018-03-28T04:38:11.197Z,70.73
2018-03-28T04:39:16.952Z,71.04
2018-03-28T04:40:22.724Z,71.02
2018-03-28T04:41:28.476Z,71.00
2018-03-28T04:42:34.253Z,71.11
2018-03-28T04:43:40.006Z,71.21
2018-03-28T04:44:45.766Z,71.03
2018-03-28T04:45:51.543Z,71.06
2018-03-28T04:46:57.300Z,70.94
2018-03-28T04:48:03.084Z,70.72
2018-03-28T04:49:08.824Z,70.60
2018-03-28T04:50:14.593Z,70.44
2018-03-28T04:51:20.914Z,70.42
2018-03-28T04:52:28.180Z,70.31
2018-03-28T04:53:33.960Z,70.41
2018-03-28T04:54:40.513Z,70.51
2018-03-28T04:55:47.112Z,70.51
2018-03-28T04:56:53.806Z,70.27
2018-03-28T04:57:59.568Z,70.31
2018-03-28T04:59:05.371Z,70.31
2018-03-28T05:00:11.130Z,70.30
2018-03-28T05:01:16.872Z,70.29
2018-03-28T05:02:22.617Z,70.22
2018-03-28T05:03:28.374Z,70.35
2018-03-28T05:04:34.157Z,70.25
2018-03-28T05:05:39.901Z,70.29
2018-03-28T05:06:45.664Z,70.22
2018-03-28T05:07:51.413Z,70.22
2018-03-28T05:08:57.167Z,70.13
2018-03-28T05:10:02.934Z,70.36
2018-03-28T05:11:08.811Z,70.31
2018-03-28T05:12:14.565Z,70.29
2018-03-28T05:13:20.352Z,70.17
2018-03-28T05:14:26.150Z,70.09
2018-03-28T05:15:31.996Z,70.10
2018-03-28T05:16:37.749Z,70.13
2018-03-28T05:17:43.516Z,70.25
2018-03-28T05:18:49.283Z,70.32
2018-03-28T05:19:55.809Z,70.26
2018-03-28T05:21:01.605Z,70.24
2018-03-28T05:22:08.127Z,70.37
2018-03-28T05:23:13.686Z,70.20
2018-03-28T05:24:20.225Z,70.24
2018-03-28T05:25:25.973Z,70.20
2018-03-28T05:26:32.530Z,70.26
2018-03-28T05:27:38.293Z,70.23
2018-03-28T05:28:44.809Z,70.25
2018-03-28T05:29:50.562Z,70.36
2018-03-28T05:30:56.847Z,70.40
2018-03-28T05:32:02.641Z,70.41
2018-03-28T05:33:08.392Z,70.50
2018-03-28T05:34:13.913Z,70.55
2018-03-28T05:35:19.665Z,70.55
2018-03-28T05:36:25.186Z,70.64
2018-03-28T05:37:30.974Z,70.80
2018-03-28T05:38:37.500Z,70.85
2018-03-28T05:39:43.251Z,70.95
2018-03-28T05:40:48.997Z,70.96
2018-03-28T05:41:54.759Z,71.00
2018-03-28T05:43:01.301Z,71.06
2018-03-28T05:44:08.571Z,71.26
2018-03-28T05:45:15.092Z,71.27
2018-03-28T05:46:20.877Z,71.26
2018-03-28T05:47:30.439Z,71.30
2018-03-28T05:48:36.997Z,71.31
2018-03-28T05:49:43.660Z,71.32
2018-03-28T05:50:49.516Z,71.38
2018-03-28T05:51:56.022Z,71.43
2018-03-28T05:53:01.819Z,71.53
2018-03-28T05:54:07.584Z,71.71
2018-03-28T05:55:13.336Z,71.79
2018-03-28T05:56:18.777Z,71.80
2018-03-28T05:57:24.529Z,71.59
2018-03-28T05:58:30.416Z,71.50
2018-03-28T05:59:39.441Z,71.32
2018-03-28T06:00:45.196Z,71.31
2018-03-28T06:01:50.984Z,71.21
2018-03-28T06:02:56.745Z,71.21
2018-03-28T06:04:03.269Z,71.17
2018-03-28T06:05:09.050Z,71.12
2018-03-28T06:06:15.580Z,71.19
2018-03-28T06:07:21.408Z,71.19
2018-03-28T06:08:28.074Z,71.22
2018-03-28T06:09:33.842Z,71.18
2018-03-28T06:10:39.610Z,71.18
2018-03-28T06:11:45.369Z,71.25
2018-03-28T06:12:51.146Z,71.40
2018-03-28T06:13:56.943Z,71.29
2018-03-28T06:15:03.643Z,71.50
2018-03-28T06:16:09.081Z,71.53
2018-03-28T06:17:14.862Z,71.46
2018-03-28T06:18:20.604Z,71.51
2018-03-28T06:19:27.120Z,71.61
2018-03-28T06:20:32.914Z,71.67
2018-03-28T06:21:38.750Z,71.88
2018-03-28T06:22:45.275Z,71.99
2018-03-28T06:23:51.038Z,72.11
2018-03-28T06:24:57.248Z,72.06
2018-03-28T06:26:03.006Z,72.28
2018-03-28T06:27:08.776Z,72.51
2018-03-28T06:28:14.531Z,72.40
2018-03-28T06:29:21.110Z,72.38
2018-03-28T06:30:26.853Z,72.57
2018-03-28T06:31:32.602Z,72.64
2018-03-28T06:32:38.433Z,72.85
2018-03-28T06:33:44.274Z,72.98
2018-03-28T06:34:50.026Z,73.14
2018-03-28T06:35:55.786Z,73.30
2018-03-28T06:37:01.297Z,73.39
2018-03-28T06:38:07.057Z,73.41
2018-03-28T06:39:12.875Z,73.34
2018-03-28T06:40:19.390Z,73.46
2018-03-28T06:41:25.164Z,73.63
2018-03-28T06:42:30.930Z,73.88
2018-03-28T06:43:37.474Z,74.11
2018-03-28T06:44:44.041Z,74.28
2018-03-28T06:45:49.781Z,74.46
2018-03-28T06:46:55.541Z,74.54
2018-03-28T06:48:01.320Z,74.65
2018-03-28T06:49:07.122Z,74.57
2018-03-28T06:50:12.874Z,74.82
2018-03-28T06:51:18.640Z,74.95
2018-03-28T06:52:24.386Z,75.00
2018-03-28T06:53:31.677Z,74.90
2018-03-28T06:54:38.508Z,75.05
2018-03-28T06:55:44.254Z,75.07
2018-03-28T06:56:50.018Z,75.03
2018-03-28T06:57:55.777Z,75.04
2018-03-28T06:59:01.537Z,74.84
2018-03-28T07:00:08.086Z,74.75
2018-03-28T07:01:14.633Z,74.69
2018-03-28T07:02:20.422Z,74.67
2018-03-28T07:03:26.176Z,74.78
2018-03-28T07:04:31.921Z,74.73
2018-03-28T07:05:37.699Z,74.51
2018-03-28T07:06:43.440Z,74.33
2018-03-28T07:07:49.205Z,74.18
2018-03-28T07:08:54.972Z,73.84
2018-03-28T07:10:00.717Z,73.70
2018-03-28T07:11:06.503Z,74.00
2018-03-28T07:12:13.109Z,73.85
2018-03-28T07:13:18.878Z,73.75
2018-03-28T07:14:24.632Z,73.75
2018-03-28T07:15:30.468Z,73.53
2018-03-28T07:16:36.243Z,73.18
2018-03-28T07:17:42.534Z,72.97
2018-03-28T07:18:48.285Z,72.84
2018-03-28T07:19:54.035Z,72.88
2018-03-28T07:21:00.662Z,73.13
2018-03-28T07:22:07.197Z,73.26
2018-03-28T07:23:12.945Z,73.32
2018-03-28T07:24:19.225Z,73.26
2018-03-28T07:25:24.985Z,73.08
2018-03-28T07:26:30.749Z,73.15
2018-03-28T07:27:36.281Z,73.19
2018-03-28T07:28:42.029Z,73.12
2018-03-28T07:29:47.768Z,72.79
2018-03-28T07:30:53.556Z,72.66
2018-03-28T07:32:00.082Z,72.55
2018-03-28T07:33:05.848Z,72.83
2018-03-28T07:34:12.361Z,72.63
2018-03-28T07:35:18.101Z,72.48
2018-03-28T07:36:23.987Z,72.77
2018-03-28T07:37:29.725Z,73.00
2018-03-28T07:38:36.389Z,72.99
2018-03-28T07:39:42.916Z,72.69
2018-03-28T07:40:48.673Z,72.52
2018-03-28T07:41:54.089Z,72.78
2018-03-28T07:42:59.841Z,72.94
2018-03-28T07:44:05.644Z,72.52
2018-03-28T07:45:11.401Z,72.30
2018-03-28T07:46:17.163Z,72.17
2018-03-28T07:47:22.909Z,71.71
2018-03-28T07:48:28.661Z,71.64
2018-03-28T07:49:34.447Z,71.54
2018-03-28T07:50:40.223Z,71.54
2018-03-28T07:51:45.972Z,71.55
2018-03-28T07:52:51.733Z,71.42
2018-03-28T07:53:57.489Z,71.43
2018-03-28T07:55:03.808Z,71.23
2018-03-28T07:56:09.736Z,70.98
2018-03-28T07:57:15.500Z,71.14
2018-03-28T07:58:21.241Z,71.16
2018-03-28T07:59:27.068Z,71.22
2018-03-28T08:00:32.864Z,71.00
2018-03-28T08:01:38.613Z,70.70
2018-03-28T08:02:44.366Z,70.78
2018-03-28T08:03:50.175Z,70.87
2018-03-28T08:04:55.863Z,70.81
2018-03-28T08:06:01.624Z,70.83
2018-03-28T08:07:08.308Z,70.73
2018-03-28T08:08:14.070Z,70.67
2018-03-28T08:09:20.626Z,70.65
2018-03-28T08:10:27.142Z,70.67
2018-03-28T08:11:32.914Z,70.91
2018-03-28T08:12:38.656Z,70.83
2018-03-28T08:13:45.174Z,70.65
2018-03-28T08:14:50.969Z,70.65
2018-03-28T08:15:57.479Z,70.75
2018-03-28T08:17:03.257Z,70.64
2018-03-28T08:18:09.008Z,70.57
2018-03-28T08:19:15.574Z,70.49
2018-03-28T08:20:21.477Z,70.43
2018-03-28T08:21:27.216Z,70.46
2018-03-28T08:22:32.984Z,70.60
2018-03-28T08:23:38.725Z,70.57
2018-03-28T08:24:44.477Z,70.64
2018-03-28T08:25:50.225Z,70.73
2018-03-28T08:26:56.738Z,70.83
2018-03-28T08:28:02.525Z,70.82
2018-03-28T08:29:09.040Z,70.84
2018-03-28T08:30:14.781Z,71.09
2018-03-28T08:31:20.542Z,71.21
2018-03-28T08:32:27.797Z,71.25
2018-03-28T08:33:33.576Z,71.26
2018-03-28T08:34:39.312Z,71.28
2018-03-28T08:35:45.060Z,71.41
2018-03-28T08:36:51.598Z,71.40
2018-03-28T08:37:57.100Z,71.35
2018-03-28T08:39:02.888Z,71.07
2018-03-28T08:40:08.632Z,71.00
2018-03-28T08:41:14.613Z,70.89
2018-03-28T08:42:20.356Z,70.69
2018-03-28T08:43:26.109Z,70.55
2018-03-28T08:44:31.897Z,70.53
2018-03-28T08:45:37.645Z,70.32
2018-03-28T08:46:44.164Z,70.33
2018-03-28T08:47:49.918Z,70.57
2018-03-28T08:48:55.660Z,70.77
2018-03-28T08:50:01.445Z,70.71
2018-03-28T08:51:07.962Z,70.43
2018-03-28T08:52:13.755Z,70.71
2018-03-28T08:53:19.688Z,70.58
2018-03-28T08:54:25.900Z,70.30
2018-03-28T08:55:31.717Z,70.17
2018-03-28T08:56:37.476Z,69.81
2018-03-28T08:57:43.241Z,69.67
2018-03-28T08:58:48.996Z,69.57
2018-03-28T08:59:54.748Z,69.36
2018-03-28T09:01:01.304Z,68.98
2018-03-28T09:02:07.816Z,68.64
2018-03-28T09:03:13.585Z,68.59
2018-03-28T09:04:20.112Z,68.34
2018-03-28T09:05:25.874Z,67.98
2018-03-28T09:06:31.648Z,67.87
2018-03-28T09:07:38.291Z,67.80
2018-03-28T09:08:44.204Z,67.72
2018-03-28T09:09:49.970Z,67.64
2018-03-28T09:10:55.727Z,67.79
2018-03-28T09:12:01.513Z,67.66
2018-03-28T09:13:07.607Z,67.58
2018-03-28T09:14:13.366Z,67.53
2018-03-28T09:15:19.127Z,67.56
2018-03-28T09:16:25.657Z,67.51
2018-03-28T09:17:31.447Z,67.43
2018-03-28T09:18:37.210Z,67.36
2018-03-28T09:19:42.960Z,67.16
2018-03-28T09:20:48.730Z,66.79
2018-03-28T09:21:54.498Z,66.41
2018-03-28T09:23:01.049Z,65.90
2018-03-28T09:24:07.579Z,65.51
2018-03-28T09:25:13.330Z,65.04
2018-03-28T09:26:19.520Z,64.72
2018-03-28T09:27:25.289Z,64.23
2018-03-28T09:28:31.060Z,63.61
2018-03-28T09:29:36.884Z,63.34
2018-03-28T09:30:42.824Z,63.29
2018-03-28T09:31:48.586Z,63.67
2018-03-28T09:32:54.344Z,63.88
2018-03-28T09:34:00.158Z,63.87
2018-03-28T09:35:05.906Z,63.71
2018-03-28T09:36:11.662Z,63.63
2018-03-28T09:37:18.942Z,63.54
2018-03-28T09:38:24.697Z,63.24
2018-03-28T09:39:31.244Z,63.08
2018-03-28T09:40:37.902Z,62.68
2018-03-28T09:41:43.812Z,62.28
2018-03-28T09:42:49.569Z,62.02
2018-03-28T09:43:55.318Z,61.85
2018-03-28T09:45:01.106Z,61.59
2018-03-28T09:46:07.847Z,61.56
2018-03-28T09:47:15.104Z,61.30
2018-03-28T09:48:21.302Z,60.97
2018-03-28T09:49:27.064Z,60.88
2018-03-28T09:50:32.852Z,60.65
2018-03-28T09:51:38.621Z,60.79
2018-03-28T09:52:45.185Z,60.92
2018-03-28T09:53:51.009Z,61.12
2018-03-28T09:54:57.532Z,61.17
2018-03-28T09:56:03.332Z,61.31
2018-03-28T09:57:09.272Z,61.26
2018-03-28T09:58:15.808Z,61.56
2018-03-28T09:59:21.578Z,61.66
2018-03-28T10:00:27.881Z,61.60
2018-03-28T10:01:33.428Z,62.11
2018-03-28T10:02:44.076Z,62.56
2018-03-28T10:03:50.517Z,62.56
2018-03-28T10:05:00.114Z,62.61
2018-03-28T10:06:06.642Z,63.00
2018-03-28T10:07:12.422Z,63.12
2018-03-28T10:08:18.944Z,63.47
2018-03-28T10:09:24.710Z,63.33
2018-03-28T10:10:30.466Z,63.49
2018-03-28T10:11:36.660Z,63.63
2018-03-28T10:12:42.437Z,63.89
2018-03-28T10:13:48.191Z,64.03
2018-03-28T10:14:54.730Z,63.73
2018-03-28T10:16:00.701Z,63.62
2018-03-28T10:17:06.895Z,63.72
2018-03-28T10:18:12.674Z,63.76
2018-03-28T10:19:18.433Z,63.62
2018-03-28T10:20:24.194Z,63.41
2018-03-28T10:21:29.944Z,62.99
2018-03-28T10:22:36.467Z,62.47
2018-03-28T10:23:42.254Z,62.05
2018-03-28T10:24:48.009Z,61.70
2018-03-28T10:25:53.777Z,61.46
2018-03-28T10:26:59.545Z,61.26
2018-03-28T10:28:05.304Z,61.31
2018-03-28T10:29:11.081Z,61.35
2018-03-28T10:30:16.852Z,61.18
2018-03-28T10:31:22.611Z,61.17
2018-03-28T10:32:28.395Z,61.08
2018-03-28T10:33:33.930Z,60.89
2018-03-28T10:34:40.500Z,61.10
2018-03-28T10:35:45.921Z,61.39
2018-03-28T10:36:52.446Z,61.60
2018-03-28T10:37:58.200Z,61.51
2018-03-28T10:39:03.935Z,61.62
2018-03-28T10:40:09.751Z,61.86
2018-03-28T10:41:15.529Z,61.98
2018-03-28T10:42:21.314Z,62.24
2018-03-28T10:43:27.298Z,62.23
2018-03-28T10:44:33.076Z,62.25
2018-03-28T10:45:39.626Z,62.41
2018-03-28T10:46:46.159Z,62.56
2018-03-28T10:47:52.065Z,62.34
2018-03-28T10:48:58.234Z,62.10
2018-03-28T10:50:03.996Z,62.31
2018-03-28T10:51:09.814Z,62.35
2018-03-28T10:52:15.592Z,62.23
2018-03-28T10:53:22.873Z,62.23
2018-03-28T10:54:28.490Z,62.19
2018-03-28T10:55:35.834Z,62.29
2018-03-28T10:56:41.647Z,62.25
2018-03-28T10:57:48.236Z,62.17
2018-03-28T10:58:54.075Z,62.40
2018-03-28T11:00:00.625Z,62.44
2018-03-28T11:01:06.394Z,62.34
2018-03-28T11:02:12.214Z,62.30
2018-03-28T11:03:17.988Z,62.38
2018-03-28T11:04:23.758Z,62.40
2018-03-28T11:05:29.537Z,62.52
2018-03-28T11:06:35.311Z,62.64
2018-03-28T11:07:41.118Z,62.74
2018-03-28T11:08:46.895Z,63.06
2018-03-28T11:09:52.706Z,63.21
2018-03-28T11:10:58.485Z,63.39
2018-03-28T11:12:04.259Z,63.42
2018-03-28T11:13:10.068Z,63.53
2018-03-28T11:14:15.851Z,63.73
2018-03-28T11:15:22.406Z,63.67
2018-03-28T11:16:28.958Z,63.61
2018-03-28T11:17:34.744Z,63.47
2018-03-28T11:18:40.553Z,63.35
2018-03-28T11:19:47.123Z,63.52
2018-03-28T11:20:53.708Z,63.41
2018-03-28T11:21:59.482Z,63.49
2018-03-28T11:23:05.257Z,63.44
2018-03-28T11:24:11.062Z,63.01
2018-03-28T11:25:16.851Z,62.93
2018-03-28T11:26:23.395Z,63.16
2018-03-28T11:27:29.166Z,63.32
2018-03-28T11:28:34.945Z,63.44
2018-03-28T11:29:40.751Z,63.69
2018-03-28T11:30:46.618Z,63.68
2018-03-28T11:31:53.327Z,63.64
2018-03-28T11:32:59.126Z,63.69
2018-03-28T11:34:04.900Z,63.78
2018-03-28T11:35:10.722Z,63.71
2018-03-28T11:36:16.541Z,63.69
2018-03-28T11:37:22.330Z,63.59
2018-03-28T11:38:28.106Z,63.37
2018-03-28T11:39:34.753Z,63.41
2018-03-28T11:40:40.566Z,63.36
2018-03-28T11:41:46.349Z,63.01
2018-03-28T11:42:52.911Z,62.97
2018-03-28T11:43:59.450Z,62.70
2018-03-28T11:45:04.654Z,62.76
2018-03-28T11:46:10.362Z,62.29
2018-03-28T11:47:18.590Z,61.93
2018-03-28T11:48:24.366Z,61.58
2018-03-28T11:49:30.134Z,61.61
2018-03-28T11:50:35.913Z,61.49
2018-03-28T11:51:41.725Z,61.47
2018-03-28T11:52:47.510Z,61.23
2018-03-28T11:53:53.290Z,61.30
2018-03-28T11:54:59.877Z,61.49
2018-03-28T11:56:05.351Z,61.48
2018-03-28T11:57:11.146Z,61.58
2018-03-28T11:58:21.645Z,61.81
2018-03-28T11:59:27.859Z,61.94
2018-03-28T12:00:33.647Z,62.01
2018-03-28T12:01:39.441Z,62.26
2018-03-28T12:02:45.294Z,62.21
2018-03-28T12:03:51.100Z,62.32
2018-03-28T12:04:56.890Z,62.32
2018-03-28T12:06:02.717Z,62.19
2018-03-28T12:07:09.317Z,62.26
2018-03-28T12:08:16.278Z,62.24
2018-03-28T12:09:22.088Z,62.42
2018-03-28T12:10:27.884Z,62.24
2018-03-28T12:11:33.674Z,61.93
2018-03-28T12:12:39.465Z,61.63
2018-03-28T12:13:45.287Z,61.35
2018-03-28T12:14:51.059Z,61.24
2018-03-28T12:15:57.686Z,60.84
2018-03-28T12:17:03.682Z,60.58
2018-03-28T12:18:10.222Z,60.38
2018-03-28T12:19:16.026Z,60.23
2018-03-28T12:20:21.816Z,59.83
2018-03-28T12:21:27.606Z,59.43
2018-03-28T12:22:33.383Z,59.17
2018-03-28T12:23:39.156Z,58.90
2018-03-28T12:24:45.717Z,58.62
2018-03-28T12:25:52.259Z,58.67
2018-03-28T12:26:58.051Z,58.73
2018-03-28T12:28:03.901Z,59.00
2018-03-28T12:29:09.868Z,59.24
2018-03-28T12:30:15.776Z,59.43
2018-03-28T12:31:21.571Z,59.63
2018-03-28T12:32:27.346Z,59.47
2018-03-28T12:33:33.171Z,59.38
2018-03-28T12:34:39.148Z,59.33
2018-03-28T12:35:44.943Z,59.25
2018-03-28T12:36:50.746Z,59.16
2018-03-28T12:37:56.753Z,59.29
2018-03-28T12:39:03.071Z,59.42
2018-03-28T12:40:08.857Z,59.36
2018-03-28T12:41:15.439Z,59.35
2018-03-28T12:42:21.231Z,59.31
2018-03-28T12:43:27.019Z,59.27
2018-03-28T12:44:32.790Z,59.28
2018-03-28T12:45:38.565Z,59.20
2018-03-28T12:46:45.147Z,59.15
2018-03-28T12:47:51.690Z,58.96
2018-03-28T12:48:57.468Z,58.81
2018-03-28T12:50:03.274Z,58.80
2018-03-28T12:51:09.246Z,58.39
2018-03-28T12:52:15.866Z,58.48
2018-03-28T12:53:21.793Z,58.58
2018-03-28T12:54:27.553Z,58.46
2018-03-28T12:55:33.387Z,58.38
2018-03-28T12:56:39.336Z,58.48
2018-03-28T12:57:45.133Z,58.56
2018-03-28T12:58:50.906Z,58.76
2018-03-28T12:59:56.690Z,58.79
2018-03-28T13:01:02.650Z,58.82
2018-03-28T13:02:09.178Z,58.49
2018-03-28T13:03:14.967Z,58.09
2018-03-28T13:04:20.720Z,58.01
2018-03-28T13:05:26.495Z,57.45
2018-03-28T13:06:32.252Z,57.21
2018-03-28T13:07:38.012Z,57.25
2018-03-28T13:08:44.595Z,57.58
2018-03-28T13:09:50.351Z,57.77
2018-03-28T13:10:56.125Z,57.76
2018-03-28T13:12:01.889Z,58.11
2018-03-28T13:13:07.649Z,59.01
2018-03-28T13:14:14.227Z,60.06
2018-03-28T13:15:19.995Z,60.77
2018-03-28T13:16:25.761Z,61.39
2018-03-28T13:17:31.516Z,62.01
2018-03-28T13:18:37.275Z,62.53
2018-03-28T13:19:43.064Z,62.88
2018-03-28T13:20:48.820Z,63.16
2018-03-28T13:21:54.583Z,63.43
2018-03-28T13:23:00.348Z,63.72
2018-03-28T13:24:05.787Z,64.05
2018-03-28T13:25:12.093Z,64.32
2018-03-28T13:26:17.900Z,64.53
2018-03-28T13:27:23.652Z,65.01
2018-03-28T13:28:29.412Z,65.36
2018-03-28T13:29:35.168Z,65.66
2018-03-28T13:30:40.976Z,65.93
2018-03-28T13:31:46.728Z,66.52
2018-03-28T13:32:52.495Z,67.06
2018-03-28T13:33:58.292Z,67.24
2018-03-28T13:35:04.041Z,67.27
2018-03-28T13:36:10.770Z,67.35
2018-03-28T13:37:17.297Z,67.37
2018-03-28T13:38:23.191Z,67.51
2018-03-28T13:39:28.956Z,67.53
2018-03-28T13:40:34.705Z,67.55
2018-03-28T13:41:40.490Z,67.61
2018-03-28T13:42:47.012Z,67.66
2018-03-28T13:43:52.768Z,67.73
2018-03-28T13:44:58.532Z,67.86
2018-03-28T13:46:04.820Z,67.91
2018-03-28T13:47:10.616Z,67.98
2018-03-28T13:48:16.177Z,68.08
2018-03-28T13:49:21.941Z,68.18
2018-03-28T13:50:27.719Z,68.37
2018-03-28T13:51:33.486Z,68.43
2018-03-28T13:52:39.276Z,68.70
2018-03-28T13:53:45.035Z,68.73
2018-03-28T13:54:50.788Z,68.81
2018-03-28T13:55:56.553Z,68.93
2018-03-28T13:57:02.322Z,69.26
2018-03-28T13:58:08.141Z,69.65
2018-03-28T13:59:13.884Z,70.13
2018-03-28T14:00:20.342Z,70.41
2018-03-28T14:01:26.927Z,70.72
2018-03-28T14:02:32.688Z,71.13
2018-03-28T14:03:38.573Z,71.34
2018-03-28T14:04:46.814Z,71.50
2018-03-28T14:05:52.246Z,71.67
2018-03-28T14:06:58.023Z,71.64
2018-03-28T14:08:03.811Z,71.64
2018-03-28T14:09:10.373Z,71.62
2018-03-28T14:10:16.901Z,71.60